sensor_id;sensor_type;location;lat;lon;timestamp;P1;durP1;ratioP1;P2;durP2;ratioP2
11447;SDS011;43755;49.736;8.734;2024-03-22T00:00:03;12.23;;;10.30;;
11447;SDS011;43755;49.736;8.734;2024-03-22T00:02:07;12.68;;;10.40;;
11447;SDS011;43755;49.736;8.734;2024-03-22T00:04:09;12.65;;;11.35;;
11447;SDS011;43755;49.736;8.734;2024-03-22T00:06:10;12.40;;;11.10;;
11447;SDS011;43755;49.736;8.734;2024-03-22T00:08:11;14.73;;;12.40;;
11447;SDS011;43755;49.736;8.734;2024-03-22T00:10:12;15.02;;;12.38;;
11447;SDS011;43755;49.736;8.734;2024-03-22T00:12:13;16.70;;;12.77;;
11447;SDS011;43755;49.736;8.734;2024-03-22T00:14:15;17.38;;;12.88;;
11447;SDS011;43755;49.736;8.734;2024-03-22T00:16:16;16.77;;;13.23;;
11447;SDS011;43755;49.736;8.734;2024-03-22T00:18:19;16.52;;;12.77;;
11447;SDS011;43755;49.736;8.734;2024-03-22T00:20:19;14.63;;;12.65;;
11447;SDS011;43755;49.736;8.734;2024-03-22T00:22:21;14.88;;;12.77;;
11447;SDS011;43755;49.736;8.734;2024-03-22T00:24:21;15.13;;;12.97;;
11447;SDS011;43755;49.736;8.734;2024-03-22T00:26:23;17.08;;;13.38;;
11447;SDS011;43755;49.736;8.734;2024-03-22T00:28:23;16.47;;;13.43;;
11447;SDS011;43755;49.736;8.734;2024-03-22T00:30:25;15.48;;;12.95;;
11447;SDS011;43755;49.736;8.734;2024-03-22T00:32:25;16.13;;;12.47;;
11447;SDS011;43755;49.736;8.734;2024-03-22T00:34:28;13.23;;;11.65;;
11447;SDS011;43755;49.736;8.734;2024-03-22T00:36:29;11.73;;;10.48;;
11447;SDS011;43755;49.736;8.734;2024-03-22T00:38:30;11.35;;;9.82;;
11447;SDS011;43755;49.736;8.734;2024-03-22T00:40:31;12.97;;;10.53;;
11447;SDS011;43755;49.736;8.734;2024-03-22T00:42:32;13.10;;;10.85;;
11447;SDS011;43755;49.736;8.734;2024-03-22T00:44:33;13.97;;;11.03;;
11447;SDS011;43755;49.736;8.734;2024-03-22T00:46:35;13.35;;;10.63;;
11447;SDS011;43755;49.736;8.734;2024-03-22T00:48:35;13.13;;;10.43;;
11447;SDS011;43755;49.736;8.734;2024-03-22T00:50:37;13.30;;;10.73;;
11447;SDS011;43755;49.736;8.734;2024-03-22T00:52:39;12.95;;;10.75;;
11447;SDS011;43755;49.736;8.734;2024-03-22T00:54:39;13.13;;;11.07;;
11447;SDS011;43755;49.736;8.734;2024-03-22T00:56:41;13.82;;;11.00;;
11447;SDS011;43755;49.736;8.734;2024-03-22T00:58:42;12.67;;;11.17;;
11447;SDS011;43755;49.736;8.734;2024-03-22T01:00:43;14.90;;;11.38;;
11447;SDS011;43755;49.736;8.734;2024-03-22T01:02:44;14.63;;;11.85;;
11447;SDS011;43755;49.736;8.734;2024-03-22T01:04:46;14.35;;;11.80;;
11447;SDS011;43755;49.736;8.734;2024-03-22T01:06:48;14.13;;;11.20;;
11447;SDS011;43755;49.736;8.734;2024-03-22T01:08:49;14.50;;;11.43;;
11447;SDS011;43755;49.736;8.734;2024-03-22T01:10:50;15.35;;;11.48;;
11447;SDS011;43755;49.736;8.734;2024-03-22T01:12:52;13.98;;;11.40;;
11447;SDS011;43755;49.736;8.734;2024-03-22T01:14:53;14.87;;;11.53;;
11447;SDS011;43755;49.736;8.734;2024-03-22T01:16:55;14.85;;;12.10;;
11447;SDS011;43755;49.736;8.734;2024-03-22T01:18:55;15.13;;;12.40;;
11447;SDS011;43755;49.736;8.734;2024-03-22T01:20:57;14.88;;;11.85;;
11447;SDS011;43755;49.736;8.734;2024-03-22T01:23:00;16.20;;;12.10;;
11447;SDS011;43755;49.736;8.734;2024-03-22T01:25:02;17.83;;;12.80;;
11447;SDS011;43755;49.736;8.734;2024-03-22T01:27:03;15.73;;;12.10;;
11447;SDS011;43755;49.736;8.734;2024-03-22T01:29:05;20.15;;;13.13;;
11447;SDS011;43755;49.736;8.734;2024-03-22T01:31:05;15.63;;;12.90;;
11447;SDS011;43755;49.736;8.734;2024-03-22T01:33:07;16.63;;;12.98;;
11447;SDS011;43755;49.736;8.734;2024-03-22T01:35:08;18.70;;;12.50;;
11447;SDS011;43755;49.736;8.734;2024-03-22T01:37:09;21.02;;;14.32;;
11447;SDS011;43755;49.736;8.734;2024-03-22T01:39:12;19.55;;;14.40;;
11447;SDS011;43755;49.736;8.734;2024-03-22T01:41:14;19.33;;;13.45;;
11447;SDS011;43755;49.736;8.734;2024-03-22T01:43:15;18.02;;;13.55;;
11447;SDS011;43755;49.736;8.734;2024-03-22T01:45:16;18.27;;;13.50;;
11447;SDS011;43755;49.736;8.734;2024-03-22T01:47:18;16.77;;;14.20;;
11447;SDS011;43755;49.736;8.734;2024-03-22T01:49:18;21.73;;;14.90;;
11447;SDS011;43755;49.736;8.734;2024-03-22T01:51:20;21.13;;;15.85;;
11447;SDS011;43755;49.736;8.734;2024-03-22T01:53:22;22.10;;;15.60;;
11447;SDS011;43755;49.736;8.734;2024-03-22T01:55:25;20.40;;;15.40;;
11447;SDS011;43755;49.736;8.734;2024-03-22T01:57:27;20.30;;;15.00;;
11447;SDS011;43755;49.736;8.734;2024-03-22T01:59:28;21.80;;;16.25;;
11447;SDS011;43755;49.736;8.734;2024-03-22T02:01:30;19.15;;;14.68;;
11447;SDS011;43755;49.736;8.734;2024-03-22T02:03:32;23.58;;;16.50;;
11447;SDS011;43755;49.736;8.734;2024-03-22T02:05:32;21.87;;;16.13;;
11447;SDS011;43755;49.736;8.734;2024-03-22T02:07:34;19.60;;;14.73;;
11447;SDS011;43755;49.736;8.734;2024-03-22T02:09:34;21.07;;;15.57;;
11447;SDS011;43755;49.736;8.734;2024-03-22T02:11:37;19.10;;;15.00;;
11447;SDS011;43755;49.736;8.734;2024-03-22T02:13:39;19.50;;;14.43;;
11447;SDS011;43755;49.736;8.734;2024-03-22T02:15:43;19.27;;;14.85;;
11447;SDS011;43755;49.736;8.734;2024-03-22T02:17:43;17.63;;;13.70;;
11447;SDS011;43755;49.736;8.734;2024-03-22T02:19:45;20.02;;;14.63;;
11447;SDS011;43755;49.736;8.734;2024-03-22T02:21:45;20.13;;;14.83;;
11447;SDS011;43755;49.736;8.734;2024-03-22T02:23:48;19.40;;;14.23;;
11447;SDS011;43755;49.736;8.734;2024-03-22T02:25:49;19.58;;;14.35;;
11447;SDS011;43755;49.736;8.734;2024-03-22T02:27:50;19.88;;;14.38;;
11447;SDS011;43755;49.736;8.734;2024-03-22T02:29:51;21.27;;;14.23;;
11447;SDS011;43755;49.736;8.734;2024-03-22T02:31:53;19.13;;;15.27;;
11447;SDS011;43755;49.736;8.734;2024-03-22T02:33:53;24.03;;;17.67;;
11447;SDS011;43755;49.736;8.734;2024-03-22T02:35:55;24.52;;;16.92;;
11447;SDS011;43755;49.736;8.734;2024-03-22T02:37:56;27.13;;;19.38;;
11447;SDS011;43755;49.736;8.734;2024-03-22T02:40:00;26.48;;;18.67;;
11447;SDS011;43755;49.736;8.734;2024-03-22T02:42:01;28.50;;;19.02;;
11447;SDS011;43755;49.736;8.734;2024-03-22T02:44:02;28.92;;;19.20;;
11447;SDS011;43755;49.736;8.734;2024-03-22T02:46:03;26.33;;;19.37;;
11447;SDS011;43755;49.736;8.734;2024-03-22T02:48:05;24.92;;;18.83;;
11447;SDS011;43755;49.736;8.734;2024-03-22T02:50:06;24.92;;;18.10;;
11447;SDS011;43755;49.736;8.734;2024-03-22T02:52:08;25.50;;;19.13;;
11447;SDS011;43755;49.736;8.734;2024-03-22T02:54:09;25.07;;;18.23;;
11447;SDS011;43755;49.736;8.734;2024-03-22T02:56:12;24.55;;;17.92;;
11447;SDS011;43755;49.736;8.734;2024-03-22T02:58:12;25.55;;;17.20;;
11447;SDS011;43755;49.736;8.734;2024-03-22T03:00:13;26.17;;;17.80;;
11447;SDS011;43755;49.736;8.734;2024-03-22T03:02:14;23.60;;;17.75;;
11447;SDS011;43755;49.736;8.734;2024-03-22T03:04:15;22.37;;;17.53;;
11447;SDS011;43755;49.736;8.734;2024-03-22T03:06:16;22.30;;;17.50;;
11447;SDS011;43755;49.736;8.734;2024-03-22T03:08:19;24.02;;;16.88;;
11447;SDS011;43755;49.736;8.734;2024-03-22T03:10:21;23.55;;;17.00;;
11447;SDS011;43755;49.736;8.734;2024-03-22T03:12:23;24.17;;;17.60;;
11447;SDS011;43755;49.736;8.734;2024-03-22T03:14:25;24.52;;;20.27;;
11447;SDS011;43755;49.736;8.734;2024-03-22T03:16:25;22.57;;;18.07;;
11447;SDS011;43755;49.736;8.734;2024-03-22T03:18:27;23.05;;;16.60;;
11447;SDS011;43755;49.736;8.734;2024-03-22T03:20:27;24.33;;;18.23;;
11447;SDS011;43755;49.736;8.734;2024-03-22T03:22:29;23.02;;;17.30;;
11447;SDS011;43755;49.736;8.734;2024-03-22T03:24:30;24.83;;;17.53;;
11447;SDS011;43755;49.736;8.734;2024-03-22T03:26:31;22.08;;;17.13;;
11447;SDS011;43755;49.736;8.734;2024-03-22T03:28:33;22.27;;;17.70;;
11447;SDS011;43755;49.736;8.734;2024-03-22T03:30:35;21.45;;;17.20;;
11447;SDS011;43755;49.736;8.734;2024-03-22T03:32:35;22.47;;;16.57;;
11447;SDS011;43755;49.736;8.734;2024-03-22T03:34:37;20.25;;;15.90;;
11447;SDS011;43755;49.736;8.734;2024-03-22T03:36:37;22.33;;;17.43;;
11447;SDS011;43755;49.736;8.734;2024-03-22T03:38:39;26.80;;;16.63;;
11447;SDS011;43755;49.736;8.734;2024-03-22T03:40:41;22.67;;;16.63;;
11447;SDS011;43755;49.736;8.734;2024-03-22T03:42:43;20.90;;;15.73;;
11447;SDS011;43755;49.736;8.734;2024-03-22T03:44:44;25.83;;;16.87;;
11447;SDS011;43755;49.736;8.734;2024-03-22T03:46:46;23.35;;;16.33;;
11447;SDS011;43755;49.736;8.734;2024-03-22T03:48:47;22.80;;;15.80;;
11447;SDS011;43755;49.736;8.734;2024-03-22T03:50:51;21.90;;;16.00;;
11447;SDS011;43755;49.736;8.734;2024-03-22T03:52:54;21.45;;;15.07;;
11447;SDS011;43755;49.736;8.734;2024-03-22T03:54:55;21.27;;;14.93;;
11447;SDS011;43755;49.736;8.734;2024-03-22T03:56:56;22.25;;;16.20;;
11447;SDS011;43755;49.736;8.734;2024-03-22T03:58:57;22.63;;;15.90;;
11447;SDS011;43755;49.736;8.734;2024-03-22T04:01:00;21.20;;;15.68;;
11447;SDS011;43755;49.736;8.734;2024-03-22T04:03:05;22.75;;;16.23;;
11447;SDS011;43755;49.736;8.734;2024-03-22T04:05:07;21.38;;;16.38;;
11447;SDS011;43755;49.736;8.734;2024-03-22T04:07:08;20.70;;;16.42;;
11447;SDS011;43755;49.736;8.734;2024-03-22T04:09:09;23.02;;;15.73;;
11447;SDS011;43755;49.736;8.734;2024-03-22T04:11:10;23.53;;;16.03;;
11447;SDS011;43755;49.736;8.734;2024-03-22T04:13:11;21.45;;;15.30;;
11447;SDS011;43755;49.736;8.734;2024-03-22T04:15:12;21.03;;;15.97;;
11447;SDS011;43755;49.736;8.734;2024-03-22T04:17:15;21.77;;;15.43;;
11447;SDS011;43755;49.736;8.734;2024-03-22T04:19:16;19.20;;;14.68;;
11447;SDS011;43755;49.736;8.734;2024-03-22T04:21:17;20.30;;;15.18;;
11447;SDS011;43755;49.736;8.734;2024-03-22T04:23:18;20.13;;;15.27;;
11447;SDS011;43755;49.736;8.734;2024-03-22T04:25:19;20.85;;;15.20;;
11447;SDS011;43755;49.736;8.734;2024-03-22T04:27:20;18.17;;;15.00;;
11447;SDS011;43755;49.736;8.734;2024-03-22T04:29:21;17.90;;;14.00;;
11447;SDS011;43755;49.736;8.734;2024-03-22T04:31:22;20.27;;;14.60;;
11447;SDS011;43755;49.736;8.734;2024-03-22T04:33:25;20.95;;;15.15;;
11447;SDS011;43755;49.736;8.734;2024-03-22T04:35:26;19.15;;;14.68;;
11447;SDS011;43755;49.736;8.734;2024-03-22T04:37:27;20.92;;;15.38;;
11447;SDS011;43755;49.736;8.734;2024-03-22T04:39:29;20.13;;;15.60;;
11447;SDS011;43755;49.736;8.734;2024-03-22T04:41:30;20.90;;;15.38;;
11447;SDS011;43755;49.736;8.734;2024-03-22T04:43:31;23.93;;;15.53;;
11447;SDS011;43755;49.736;8.734;2024-03-22T04:45:32;20.85;;;15.35;;
11447;SDS011;43755;49.736;8.734;2024-03-22T04:47:33;20.07;;;15.03;;
11447;SDS011;43755;49.736;8.734;2024-03-22T04:49:36;20.33;;;15.38;;
11447;SDS011;43755;49.736;8.734;2024-03-22T04:51:36;19.90;;;14.95;;
11447;SDS011;43755;49.736;8.734;2024-03-22T04:53:38;16.77;;;14.02;;
11447;SDS011;43755;49.736;8.734;2024-03-22T04:55:38;18.87;;;14.80;;
11447;SDS011;43755;49.736;8.734;2024-03-22T04:57:44;19.08;;;14.00;;
11447;SDS011;43755;49.736;8.734;2024-03-22T04:59:46;20.05;;;15.07;;
11447;SDS011;43755;49.736;8.734;2024-03-22T05:01:46;18.50;;;14.60;;
11447;SDS011;43755;49.736;8.734;2024-03-22T05:03:48;20.45;;;14.68;;
11447;SDS011;43755;49.736;8.734;2024-03-22T05:05:50;18.47;;;14.13;;
11447;SDS011;43755;49.736;8.734;2024-03-22T05:07:52;21.88;;;15.20;;
11447;SDS011;43755;49.736;8.734;2024-03-22T05:09:52;19.80;;;14.70;;
11447;SDS011;43755;49.736;8.734;2024-03-22T05:11:54;19.98;;;13.95;;
11447;SDS011;43755;49.736;8.734;2024-03-22T05:13:54;21.07;;;15.07;;
11447;SDS011;43755;49.736;8.734;2024-03-22T05:15:56;19.90;;;14.90;;
11447;SDS011;43755;49.736;8.734;2024-03-22T05:17:57;20.23;;;14.80;;
11447;SDS011;43755;49.736;8.734;2024-03-22T05:19:59;18.70;;;14.27;;
11447;SDS011;43755;49.736;8.734;2024-03-22T05:22:01;18.17;;;14.13;;
11447;SDS011;43755;49.736;8.734;2024-03-22T05:24:03;24.80;;;15.10;;
11447;SDS011;43755;49.736;8.734;2024-03-22T05:26:03;19.80;;;14.70;;
11447;SDS011;43755;49.736;8.734;2024-03-22T05:28:05;19.38;;;13.60;;
11447;SDS011;43755;49.736;8.734;2024-03-22T05:30:06;17.48;;;13.82;;
11447;SDS011;43755;49.736;8.734;2024-03-22T05:32:08;21.67;;;14.90;;
11447;SDS011;43755;49.736;8.734;2024-03-22T05:34:09;17.67;;;13.40;;
11447;SDS011;43755;49.736;8.734;2024-03-22T05:36:11;18.60;;;13.63;;
11447;SDS011;43755;49.736;8.734;2024-03-22T05:38:12;18.50;;;14.00;;
11447;SDS011;43755;49.736;8.734;2024-03-22T05:40:14;20.08;;;13.90;;
11447;SDS011;43755;49.736;8.734;2024-03-22T05:42:16;17.08;;;13.10;;
11447;SDS011;43755;49.736;8.734;2024-03-22T05:44:17;16.67;;;12.95;;
11447;SDS011;43755;49.736;8.734;2024-03-22T05:46:18;16.60;;;13.07;;
11447;SDS011;43755;49.736;8.734;2024-03-22T05:48:20;18.58;;;13.25;;
11447;SDS011;43755;49.736;8.734;2024-03-22T05:50:20;16.80;;;12.87;;
11447;SDS011;43755;49.736;8.734;2024-03-22T05:52:22;18.23;;;13.10;;
11447;SDS011;43755;49.736;8.734;2024-03-22T05:54:23;15.90;;;12.93;;
11447;SDS011;43755;49.736;8.734;2024-03-22T05:56:25;16.85;;;12.82;;
11447;SDS011;43755;49.736;8.734;2024-03-22T05:58:26;17.13;;;12.90;;
11447;SDS011;43755;49.736;8.734;2024-03-22T06:00:27;14.15;;;11.82;;
11447;SDS011;43755;49.736;8.734;2024-03-22T06:02:28;13.70;;;11.70;;
11447;SDS011;43755;49.736;8.734;2024-03-22T06:04:29;14.98;;;11.85;;
11447;SDS011;43755;49.736;8.734;2024-03-22T06:06:30;15.00;;;12.23;;
11447;SDS011;43755;49.736;8.734;2024-03-22T06:08:33;15.48;;;12.02;;
11447;SDS011;43755;49.736;8.734;2024-03-22T06:10:36;14.88;;;11.73;;
11447;SDS011;43755;49.736;8.734;2024-03-22T06:12:37;14.32;;;11.82;;
11447;SDS011;43755;49.736;8.734;2024-03-22T06:14:39;19.03;;;12.00;;
11447;SDS011;43755;49.736;8.734;2024-03-22T06:16:40;15.95;;;11.63;;
11447;SDS011;43755;49.736;8.734;2024-03-22T06:18:41;16.77;;;11.93;;
11447;SDS011;43755;49.736;8.734;2024-03-22T06:20:43;16.67;;;11.65;;
11447;SDS011;43755;49.736;8.734;2024-03-22T06:22:43;14.90;;;12.00;;
11447;SDS011;43755;49.736;8.734;2024-03-22T06:24:45;15.05;;;12.45;;
11447;SDS011;43755;49.736;8.734;2024-03-22T06:26:47;14.83;;;11.83;;
11447;SDS011;43755;49.736;8.734;2024-03-22T06:28:49;15.77;;;13.10;;
11447;SDS011;43755;49.736;8.734;2024-03-22T06:30:50;13.83;;;11.20;;
11447;SDS011;43755;49.736;8.734;2024-03-22T06:32:51;15.07;;;11.82;;
11447;SDS011;43755;49.736;8.734;2024-03-22T06:34:52;14.07;;;11.30;;
11447;SDS011;43755;49.736;8.734;2024-03-22T06:36:53;12.85;;;11.43;;
11447;SDS011;43755;49.736;8.734;2024-03-22T06:38:54;15.63;;;11.33;;
11447;SDS011;43755;49.736;8.734;2024-03-22T06:40:56;14.13;;;11.75;;
11447;SDS011;43755;49.736;8.734;2024-03-22T06:42:58;16.92;;;11.23;;
11447;SDS011;43755;49.736;8.734;2024-03-22T06:45:00;12.60;;;11.10;;
11447;SDS011;43755;49.736;8.734;2024-03-22T06:47:00;14.17;;;11.50;;
11447;SDS011;43755;49.736;8.734;2024-03-22T06:49:03;16.55;;;11.55;;
11447;SDS011;43755;49.736;8.734;2024-03-22T06:51:03;13.57;;;10.83;;
11447;SDS011;43755;49.736;8.734;2024-03-22T06:53:05;12.90;;;10.73;;
11447;SDS011;43755;49.736;8.734;2024-03-22T06:55:06;13.67;;;11.63;;
11447;SDS011;43755;49.736;8.734;2024-03-22T06:57:08;14.68;;;11.18;;
11447;SDS011;43755;49.736;8.734;2024-03-22T06:59:09;11.83;;;10.33;;
11447;SDS011;43755;49.736;8.734;2024-03-22T07:01:11;13.95;;;10.20;;
11447;SDS011;43755;49.736;8.734;2024-03-22T07:03:12;11.40;;;10.07;;
11447;SDS011;43755;49.736;8.734;2024-03-22T07:05:14;11.27;;;9.45;;
11447;SDS011;43755;49.736;8.734;2024-03-22T07:07:14;12.90;;;9.30;;
11447;SDS011;43755;49.736;8.734;2024-03-22T07:09:16;11.85;;;8.60;;
11447;SDS011;43755;49.736;8.734;2024-03-22T07:11:16;10.80;;;8.70;;
11447;SDS011;43755;49.736;8.734;2024-03-22T07:13:18;9.48;;;7.65;;
11447;SDS011;43755;49.736;8.734;2024-03-22T07:15:20;10.00;;;7.97;;
11447;SDS011;43755;49.736;8.734;2024-03-22T07:17:22;7.63;;;6.82;;
11447;SDS011;43755;49.736;8.734;2024-03-22T07:19:24;8.07;;;6.72;;
11447;SDS011;43755;49.736;8.734;2024-03-22T07:21:26;8.07;;;6.60;;
11447;SDS011;43755;49.736;8.734;2024-03-22T07:23:27;7.60;;;6.13;;
11447;SDS011;43755;49.736;8.734;2024-03-22T07:25:28;7.53;;;6.25;;
11447;SDS011;43755;49.736;8.734;2024-03-22T07:27:29;7.53;;;6.77;;
11447;SDS011;43755;49.736;8.734;2024-03-22T07:29:31;6.93;;;5.78;;
11447;SDS011;43755;49.736;8.734;2024-03-22T07:31:33;9.73;;;6.80;;
11447;SDS011;43755;49.736;8.734;2024-03-22T07:33:34;7.38;;;6.05;;
11447;SDS011;43755;49.736;8.734;2024-03-22T07:35:35;7.77;;;5.93;;
11447;SDS011;43755;49.736;8.734;2024-03-22T07:37:37;7.68;;;6.00;;
11447;SDS011;43755;49.736;8.734;2024-03-22T07:39:38;7.83;;;6.23;;
11447;SDS011;43755;49.736;8.734;2024-03-22T07:41:39;7.43;;;5.88;;
11447;SDS011;43755;49.736;8.734;2024-03-22T07:43:40;7.80;;;5.93;;
11447;SDS011;43755;49.736;8.734;2024-03-22T07:45:41;7.82;;;6.18;;
11447;SDS011;43755;49.736;8.734;2024-03-22T07:47:43;7.00;;;6.20;;
11447;SDS011;43755;49.736;8.734;2024-03-22T07:49:45;7.90;;;6.43;;
11447;SDS011;43755;49.736;8.734;2024-03-22T07:51:45;7.30;;;6.60;;
11447;SDS011;43755;49.736;8.734;2024-03-22T07:53:47;7.35;;;6.60;;
11447;SDS011;43755;49.736;8.734;2024-03-22T07:55:47;8.00;;;6.80;;
11447;SDS011;43755;49.736;8.734;2024-03-22T07:57:49;11.10;;;7.20;;
11447;SDS011;43755;49.736;8.734;2024-03-22T07:59:49;9.53;;;6.90;;
11447;SDS011;43755;49.736;8.734;2024-03-22T08:01:51;9.07;;;6.97;;
11447;SDS011;43755;49.736;8.734;2024-03-22T08:03:53;10.80;;;7.83;;
11447;SDS011;43755;49.736;8.734;2024-03-22T08:05:54;11.27;;;8.02;;
11447;SDS011;43755;49.736;8.734;2024-03-22T08:07:55;10.97;;;7.40;;
11447;SDS011;43755;49.736;8.734;2024-03-22T08:09:57;11.65;;;7.13;;
11447;SDS011;43755;49.736;8.734;2024-03-22T08:11:58;9.90;;;6.43;;
11447;SDS011;43755;49.736;8.734;2024-03-22T08:14:00;8.23;;;6.63;;
11447;SDS011;43755;49.736;8.734;2024-03-22T08:16:03;10.40;;;6.40;;
11447;SDS011;43755;49.736;8.734;2024-03-22T08:18:05;8.00;;;6.40;;
11447;SDS011;43755;49.736;8.734;2024-03-22T08:20:08;8.53;;;6.10;;
11447;SDS011;43755;49.736;8.734;2024-03-22T08:22:10;8.68;;;5.75;;
11447;SDS011;43755;49.736;8.734;2024-03-22T08:24:10;10.87;;;5.70;;
11447;SDS011;43755;49.736;8.734;2024-03-22T08:26:12;7.40;;;5.50;;
11447;SDS011;43755;49.736;8.734;2024-03-22T08:28:12;8.57;;;5.97;;
11447;SDS011;43755;49.736;8.734;2024-03-22T08:30:14;7.43;;;5.55;;
11447;SDS011;43755;49.736;8.734;2024-03-22T08:32:15;9.05;;;5.65;;
11447;SDS011;43755;49.736;8.734;2024-03-22T08:34:16;7.28;;;4.82;;
11447;SDS011;43755;49.736;8.734;2024-03-22T08:36:18;7.53;;;5.20;;
11447;SDS011;43755;49.736;8.734;2024-03-22T08:38:20;8.88;;;4.93;;
11447;SDS011;43755;49.736;8.734;2024-03-22T08:40:20;8.73;;;5.60;;
11447;SDS011;43755;49.736;8.734;2024-03-22T08:42:23;6.88;;;5.15;;
11447;SDS011;43755;49.736;8.734;2024-03-22T08:44:23;6.27;;;4.70;;
11447;SDS011;43755;49.736;8.734;2024-03-22T08:46:25;8.00;;;4.82;;
11447;SDS011;43755;49.736;8.734;2024-03-22T08:48:26;5.43;;;4.22;;
11447;SDS011;43755;49.736;8.734;2024-03-22T08:50:28;7.22;;;4.70;;
11447;SDS011;43755;49.736;8.734;2024-03-22T08:52:30;6.50;;;4.17;;
11447;SDS011;43755;49.736;8.734;2024-03-22T08:54:32;7.55;;;4.60;;
11447;SDS011;43755;49.736;8.734;2024-03-22T08:56:32;4.70;;;4.20;;
11447;SDS011;43755;49.736;8.734;2024-03-22T08:58:34;4.35;;;3.50;;
11447;SDS011;43755;49.736;8.734;2024-03-22T09:00:34;6.50;;;3.73;;
11447;SDS011;43755;49.736;8.734;2024-03-22T09:02:37;4.97;;;3.50;;
11447;SDS011;43755;49.736;8.734;2024-03-22T09:04:38;4.10;;;3.20;;
11447;SDS011;43755;49.736;8.734;2024-03-22T09:06:40;3.67;;;3.38;;
11447;SDS011;43755;49.736;8.734;2024-03-22T09:08:42;5.33;;;3.33;;
11447;SDS011;43755;49.736;8.734;2024-03-22T09:10:43;3.20;;;2.90;;
11447;SDS011;43755;49.736;8.734;2024-03-22T09:12:45;3.38;;;3.00;;
11447;SDS011;43755;49.736;8.734;2024-03-22T09:14:45;3.27;;;2.90;;
11447;SDS011;43755;49.736;8.734;2024-03-22T09:16:47;3.08;;;2.85;;
11447;SDS011;43755;49.736;8.734;2024-03-22T09:18:47;3.33;;;3.03;;
11447;SDS011;43755;49.736;8.734;2024-03-22T09:20:49;3.20;;;2.90;;
11447;SDS011;43755;49.736;8.734;2024-03-22T09:22:50;5.30;;;3.20;;
11447;SDS011;43755;49.736;8.734;2024-03-22T09:24:53;3.20;;;2.90;;
11447;SDS011;43755;49.736;8.734;2024-03-22T09:26:53;4.95;;;3.55;;
11447;SDS011;43755;49.736;8.734;2024-03-22T09:28:55;4.43;;;3.50;;
11447;SDS011;43755;49.736;8.734;2024-03-22T09:30:55;4.33;;;3.70;;
11447;SDS011;43755;49.736;8.734;2024-03-22T09:32:57;5.18;;;3.60;;
11447;SDS011;43755;49.736;8.734;2024-03-22T09:34:58;3.87;;;3.30;;
11447;SDS011;43755;49.736;8.734;2024-03-22T09:36:59;4.22;;;3.83;;
11447;SDS011;43755;49.736;8.734;2024-03-22T09:39:00;8.17;;;5.00;;
11447;SDS011;43755;49.736;8.734;2024-03-22T09:41:03;7.38;;;5.15;;
11447;SDS011;43755;49.736;8.734;2024-03-22T09:43:04;6.03;;;5.10;;
11447;SDS011;43755;49.736;8.734;2024-03-22T09:45:08;6.05;;;4.85;;
11447;SDS011;43755;49.736;8.734;2024-03-22T09:47:10;5.38;;;4.82;;
11447;SDS011;43755;49.736;8.734;2024-03-22T09:49:14;5.07;;;4.45;;
11447;SDS011;43755;49.736;8.734;2024-03-22T09:51:16;4.72;;;4.10;;
11447;SDS011;43755;49.736;8.734;2024-03-22T09:53:18;4.70;;;3.88;;
11447;SDS011;43755;49.736;8.734;2024-03-22T09:55:21;5.15;;;3.95;;
11447;SDS011;43755;49.736;8.734;2024-03-22T09:57:25;5.95;;;4.22;;
11447;SDS011;43755;49.736;8.734;2024-03-22T09:59:26;4.35;;;3.95;;
11447;SDS011;43755;49.736;8.734;2024-03-22T10:01:28;4.55;;;4.07;;
11447;SDS011;43755;49.736;8.734;2024-03-22T10:03:29;5.85;;;3.88;;
11447;SDS011;43755;49.736;8.734;2024-03-22T10:05:31;4.95;;;4.50;;
11447;SDS011;43755;49.736;8.734;2024-03-22T10:07:32;4.80;;;4.40;;
11447;SDS011;43755;49.736;8.734;2024-03-22T10:09:33;5.25;;;4.43;;
11447;SDS011;43755;49.736;8.734;2024-03-22T10:11:35;5.78;;;4.70;;
11447;SDS011;43755;49.736;8.734;2024-03-22T10:13:37;6.68;;;4.50;;
11447;SDS011;43755;49.736;8.734;2024-03-22T10:15:38;5.05;;;4.65;;
11447;SDS011;43755;49.736;8.734;2024-03-22T10:17:40;4.65;;;4.20;;
11447;SDS011;43755;49.736;8.734;2024-03-22T10:19:40;5.53;;;4.60;;
11447;SDS011;43755;49.736;8.734;2024-03-22T10:21:42;5.68;;;4.88;;
11447;SDS011;43755;49.736;8.734;2024-03-22T10:23:42;5.40;;;4.50;;
11447;SDS011;43755;49.736;8.734;2024-03-22T10:25:44;5.03;;;4.60;;
11447;SDS011;43755;49.736;8.734;2024-03-22T10:27:45;5.63;;;5.13;;
11447;SDS011;43755;49.736;8.734;2024-03-22T10:29:48;5.88;;;5.25;;
11447;SDS011;43755;49.736;8.734;2024-03-22T10:31:49;6.70;;;5.70;;
11447;SDS011;43755;49.736;8.734;2024-03-22T10:33:52;9.05;;;5.88;;
11447;SDS011;43755;49.736;8.734;2024-03-22T10:35:54;7.00;;;5.65;;
11447;SDS011;43755;49.736;8.734;2024-03-22T10:37:56;6.75;;;5.60;;
11447;SDS011;43755;49.736;8.734;2024-03-22T10:39:57;6.33;;;5.50;;
11447;SDS011;43755;49.736;8.734;2024-03-22T10:42:02;7.50;;;5.90;;
11447;SDS011;43755;49.736;8.734;2024-03-22T10:44:03;6.20;;;5.60;;
11447;SDS011;43755;49.736;8.734;2024-03-22T10:46:06;5.35;;;4.85;;
11447;SDS011;43755;49.736;8.734;2024-03-22T10:48:09;6.93;;;5.60;;
11447;SDS011;43755;49.736;8.734;2024-03-22T10:50:11;6.75;;;6.00;;
11447;SDS011;43755;49.736;8.734;2024-03-22T10:52:12;7.65;;;5.88;;
11447;SDS011;43755;49.736;8.734;2024-03-22T10:54:15;5.63;;;5.10;;
11447;SDS011;43755;49.736;8.734;2024-03-22T10:56:20;7.32;;;6.20;;
11447;SDS011;43755;49.736;8.734;2024-03-22T10:58:24;6.20;;;5.60;;
11447;SDS011;43755;49.736;8.734;2024-03-22T11:00:28;7.18;;;6.50;;
11447;SDS011;43755;49.736;8.734;2024-03-22T11:02:32;8.05;;;7.20;;
11447;SDS011;43755;49.736;8.734;2024-03-22T11:04:33;5.93;;;5.32;;
11447;SDS011;43755;49.736;8.734;2024-03-22T11:06:36;7.15;;;6.45;;
11447;SDS011;43755;49.736;8.734;2024-03-22T11:08:37;7.30;;;6.60;;
11447;SDS011;43755;49.736;8.734;2024-03-22T11:10:38;7.43;;;6.28;;
11447;SDS011;43755;49.736;8.734;2024-03-22T11:12:40;7.70;;;6.22;;
11447;SDS011;43755;49.736;8.734;2024-03-22T11:14:42;8.30;;;6.30;;
11447;SDS011;43755;49.736;8.734;2024-03-22T11:16:43;7.13;;;6.37;;
11447;SDS011;43755;49.736;8.734;2024-03-22T11:18:46;7.60;;;6.53;;
11447;SDS011;43755;49.736;8.734;2024-03-22T11:20:48;9.77;;;6.65;;
11447;SDS011;43755;49.736;8.734;2024-03-22T11:22:50;8.40;;;6.80;;
11447;SDS011;43755;49.736;8.734;2024-03-22T11:24:51;6.75;;;6.15;;
11447;SDS011;43755;49.736;8.734;2024-03-22T11:26:53;6.63;;;5.93;;
11447;SDS011;43755;49.736;8.734;2024-03-22T11:28:54;7.63;;;6.07;;
11447;SDS011;43755;49.736;8.734;2024-03-22T11:30:55;7.07;;;6.43;;
11447;SDS011;43755;49.736;8.734;2024-03-22T11:32:56;6.63;;;5.80;;
11447;SDS011;43755;49.736;8.734;2024-03-22T11:34:59;6.85;;;6.15;;
11447;SDS011;43755;49.736;8.734;2024-03-22T11:37:00;6.97;;;6.38;;
11447;SDS011;43755;49.736;8.734;2024-03-22T11:39:01;7.38;;;6.57;;
11447;SDS011;43755;49.736;8.734;2024-03-22T11:41:04;8.25;;;6.95;;
11447;SDS011;43755;49.736;8.734;2024-03-22T11:43:06;7.38;;;6.35;;
11447;SDS011;43755;49.736;8.734;2024-03-22T11:45:07;9.10;;;6.60;;
11447;SDS011;43755;49.736;8.734;2024-03-22T11:47:11;6.95;;;6.20;;
11447;SDS011;43755;49.736;8.734;2024-03-22T11:49:12;6.67;;;6.07;;
11447;SDS011;43755;49.736;8.734;2024-03-22T11:51:16;8.32;;;6.25;;
11447;SDS011;43755;49.736;8.734;2024-03-22T11:53:16;8.70;;;6.55;;
11447;SDS011;43755;49.736;8.734;2024-03-22T11:55:18;7.97;;;6.72;;
11447;SDS011;43755;49.736;8.734;2024-03-22T11:57:20;8.83;;;7.00;;